Time;durP1;ratioP1;P1;durP2;ratioP2;P2;SDS_P1;SDS_P2;PMS_P1;PMS_P2;Temp;Humidity;BMP_temperature;BMP_pressure;BME280_temperature;BME280_humidity;BME280_pressure;Samples;Min_cycle;Max_cycle;Signal;HPM_P1;HPM_P2
2022/05/14 00:00:42;;;;;;;6.97;3.63;;;;;;;11.99;nan;101804.09;5023005;28;20042;-40
2022/05/14 00:03:08;;;;;;;8.40;4.25;;;;;;;11.89;nan;101798.50;5019018;28;20033;-40
2022/05/14 00:05:35;;;;;;;6.22;3.83;;;;;;;11.85;nan;101791.94;5019738;28;20164;-40
2022/05/14 00:08:00;;;;;;;6.00;3.97;;;;;;;11.84;nan;101790.28;5021223;28;20051;-40
2022/05/14 00:10:29;;;;;;;5.20;3.30;;;;;;;11.74;nan;101786.28;5027902;28;20021;-40
2022/05/14 00:13:04;;;;;;;5.53;3.08;;;;;;;11.65;nan;101779.59;5011541;28;20034;-40
2022/05/14 00:15:41;;;;;;;7.85;4.05;;;;;;;11.49;nan;101780.28;5013842;28;20033;-40
2022/05/14 00:18:09;;;;;;;8.55;3.85;;;;;;;11.43;nan;101787.38;5014060;28;20043;-40
2022/05/14 00:20:36;;;;;;;8.10;3.65;;;;;;;11.45;nan;101800.56;5016391;28;20033;-39
2022/05/14 00:23:03;;;;;;;7.03;3.63;;;;;;;11.44;nan;101791.69;5013155;28;20753;-41
2022/05/14 00:25:29;;;;;;;8.90;2.95;;;;;;;11.35;nan;101792.25;5017009;28;20091;-39
2022/05/14 00:27:55;;;;;;;5.13;3.65;;;;;;;11.37;nan;101795.53;5015151;28;20028;-40
2022/05/14 00:30:23;;;;;;;7.40;3.45;;;;;;;11.44;nan;101786.31;5017286;28;20024;-40
2022/05/14 00:32:50;;;;;;;5.68;3.47;;;;;;;11.43;nan;101783.88;5021822;28;20402;-40
2022/05/14 00:35:16;;;;;;;6.53;3.88;;;;;;;11.35;nan;101782.34;5022836;28;20032;-39
2022/05/14 00:37:42;;;;;;;5.03;3.22;;;;;;;11.38;nan;101789.91;5024979;28;20017;-40
2022/05/14 00:40:18;;;;;;;7.70;3.53;;;;;;;11.43;nan;101775.81;5019713;28;20051;-40
2022/05/14 00:42:43;;;;;;;8.93;3.63;;;;;;;11.45;nan;101782.59;5020884;28;20057;-39
2022/05/14 00:45:10;;;;;;;7.40;3.70;;;;;;;11.41;nan;101775.22;5021365;28;20068;-40
2022/05/14 00:47:38;;;;;;;6.88;3.75;;;;;;;11.44;nan;101783.63;5021886;28;20034;-40
2022/05/14 00:50:09;;;;;;;11.57;3.97;;;;;;;11.48;nan;101782.13;5020548;28;20049;-40
2022/05/14 00:52:35;;;;;;;5.03;3.35;;;;;;;11.54;nan;101782.28;5023229;28;20494;-40
2022/05/14 00:55:04;;;;;;;8.65;3.20;;;;;;;11.55;nan;101781.22;5020296;28;20030;-40
2022/05/14 00:57:36;;;;;;;6.65;3.40;;;;;;;11.51;nan;101775.50;5021841;28;20064;-40
2022/05/14 01:00:12;;;;;;;6.50;3.28;;;;;;;11.52;nan;101782.50;5022628;28;20029;-40
2022/05/14 01:02:38;;;;;;;4.32;3.72;;;;;;;11.58;nan;101780.78;5020187;28;20021;-40
2022/05/14 01:05:05;;;;;;;5.85;3.72;;;;;;;11.58;nan;101780.78;5021066;28;20071;-40
2022/05/14 01:07:33;;;;;;;8.77;4.30;;;;;;;11.50;nan;101769.31;5023023;28;20483;-41
2022/05/14 01:10:01;;;;;;;4.97;4.20;;;;;;;11.49;nan;101765.00;5016539;28;20403;-40
2022/05/14 01:12:29;;;;;;;5.32;3.75;;;;;;;11.48;nan;101766.03;5021700;28;20033;-40
2022/05/14 01:15:05;;;;;;;6.70;3.88;;;;;;;11.50;nan;101763.97;5021433;28;20036;-40
2022/05/14 01:17:30;;;;;;;8.82;4.25;;;;;;;11.54;nan;101763.50;5020914;28;20025;-40
2022/05/14 01:19:56;;;;;;;12.52;5.70;;;;;;;11.46;nan;101768.13;5021264;28;20025;-41
2022/05/14 01:22:37;;;;;;;7.45;4.03;;;;;;;11.40;nan;101769.03;5023760;28;20029;-40
2022/05/14 01:27:58;;;;;;;10.40;4.05;;;;;;;11.42;nan;101768.81;5018999;28;20483;-40
2022/05/14 01:30:23;;;;;;;5.07;3.75;;;;;;;11.40;nan;101763.69;5019575;28;20353;-40
2022/05/14 01:33:04;;;;;;;4.88;3.85;;;;;;;11.36;nan;101769.75;5019113;28;20487;-40
2022/05/14 01:35:35;;;;;;;7.55;3.88;;;;;;;11.43;nan;101768.59;5018734;28;20034;-40
2022/05/14 01:38:01;;;;;;;5.53;3.88;;;;;;;11.47;nan;101766.25;5018767;28;20026;-40
2022/05/14 01:40:28;;;;;;;6.18;3.63;;;;;;;11.44;nan;101764.84;5022709;28;20233;-40
2022/05/14 01:42:54;;;;;;;8.45;3.70;;;;;;;11.45;nan;101765.66;5021640;28;20025;-40
2022/05/14 01:45:19;;;;;;;6.28;3.22;;;;;;;11.43;nan;101768.59;5019496;28;20039;-39
2022/05/14 01:47:45;;;;;;;4.63;3.58;;;;;;;11.40;nan;101769.03;5021739;28;20033;-40
2022/05/14 01:50:10;;;;;;;5.88;4.20;;;;;;;11.41;nan;101775.22;5021693;28;20108;-40
2022/05/14 01:52:36;;;;;;;6.85;4.22;;;;;;;11.45;nan;101776.41;5018278;28;20029;-39
2022/05/14 01:55:01;;;;;;;7.30;3.83;;;;;;;11.45;nan;101765.66;5021442;28;20490;-40
2022/05/14 01:57:27;;;;;;;6.35;3.80;;;;;;;11.50;nan;101768.50;5020570;28;20389;-39
2022/05/14 01:59:52;;;;;;;4.40;3.45;;;;;;;11.55;nan;101768.63;5020349;28;20517;-40
2022/05/14 02:02:18;;;;;;;4.75;3.55;;;;;;;11.59;nan;101771.66;5022612;28;20029;-40
2022/05/14 02:04:43;;;;;;;9.55;3.67;;;;;;;11.63;nan;101779.03;5018718;28;20037;-40
2022/05/14 02:07:09;;;;;;;5.32;3.80;;;;;;;11.62;nan;101769.34;5021182;28;20036;-40
2022/05/14 02:09:34;;;;;;;9.13;4.07;;;;;;;11.59;nan;101768.97;5021337;28;20021;-40
2022/05/14 02:12:01;;;;;;;9.55;4.50;;;;;;;11.48;nan;101760.66;5020507;28;20021;-41
2022/05/14 02:14:27;;;;;;;5.00;3.55;;;;;;;11.43;nan;101762.41;5019128;28;20168;-40
2022/05/14 02:16:52;;;;;;;7.13;3.88;;;;;;;11.45;nan;101760.31;5017738;28;20108;-40
2022/05/14 02:19:18;;;;;;;7.85;3.58;;;;;;;11.42;nan;101766.94;5018309;28;20022;-39
2022/05/14 02:21:44;;;;;;;5.78;3.97;;;;;;;11.47;nan;101768.94;5019492;28;20030;-39
2022/05/14 02:24:09;;;;;;;6.55;4.18;;;;;;;11.43;nan;101768.59;5021036;28;20036;-40
2022/05/14 02:26:35;;;;;;;7.63;3.67;;;;;;;11.39;nan;101767.41;5017716;28;20026;-40
2022/05/14 02:29:01;;;;;;;7.80;3.42;;;;;;;11.39;nan;101755.84;5020159;28;20018;-40
2022/05/14 02:31:27;;;;;;;7.63;3.30;;;;;;;11.44;nan;101764.03;5019570;28;20029;-40
2022/05/14 02:33:53;;;;;;;12.15;5.57;;;;;;;11.47;nan;101766.25;5024361;28;20037;-40
2022/05/14 02:36:19;;;;;;;6.35;3.22;;;;;;;11.47;nan;101759.03;5015937;28;20052;-41
2022/05/14 02:38:45;;;;;;;9.65;3.30;;;;;;;11.46;nan;101760.06;5022378;28;20451;-39
2022/05/14 02:41:13;;;;;;;8.65;3.47;;;;;;;11.49;nan;101753.44;5019675;28;20076;-40
2022/05/14 02:43:38;;;;;;;6.60;3.50;;;;;;;11.40;nan;101747.56;5021142;28;20115;-40
2022/05/14 02:46:04;;;;;;;8.05;3.80;;;;;;;11.39;nan;101745.94;5020747;28;20068;-39
2022/05/14 02:48:31;;;;;;;11.25;3.50;;;;;;;11.42;nan;101755.41;5021249;28;20128;-39
2022/05/14 02:50:57;;;;;;;8.70;4.00;;;;;;;11.35;nan;101752.00;5021907;28;20036;-40
2022/05/14 02:53:23;;;;;;;6.00;3.33;;;;;;;11.26;nan;101743.44;5019914;28;20021;-40
2022/05/14 02:55:48;;;;;;;6.63;4.10;;;;;;;11.10;nan;101746.75;5016951;28;20025;-41
2022/05/14 02:59:06;;;;;;;5.80;4.07;;;;;;;10.89;nan;101751.56;5020467;28;20108;-40
2022/05/14 03:00:59;;;;;;;10.95;4.30;;;;;;;10.75;nan;101749.28;5015859;28;20371;-40
2022/05/14 03:03:26;;;;;;;8.98;4.00;;;;;;;10.72;nan;101749.72;5017568;28;20029;-39
2022/05/14 03:05:51;;;;;;;5.65;4.30;;;;;;;10.69;nan;101756.34;5020607;28;20081;-39
2022/05/14 03:08:17;;;;;;;7.32;4.05;;;;;;;10.58;nan;101757.09;5017753;28;20057;-40
2022/05/14 03:10:42;;;;;;;9.02;4.30;;;;;;;10.57;nan;101758.13;5017390;28;20032;-41
2022/05/14 03:13:08;;;;;;;7.22;3.90;;;;;;;10.45;nan;101749.22;5021053;28;20372;-40
2022/05/14 03:15:34;;;;;;;7.82;3.88;;;;;;;10.33;nan;101745.63;5025884;28;20064;-39
2022/05/14 03:18:00;;;;;;;7.85;3.95;;;;;;;10.27;nan;101745.47;5020053;28;20036;-40
2022/05/14 03:20:25;;;;;;;9.18;3.95;;;;;;;10.35;nan;101751.59;5021101;28;20025;-40
2022/05/14 03:22:52;;;;;;;9.60;4.50;;;;;;;10.37;nan;101747.63;5019939;28;20190;-39
2022/05/14 03:25:17;;;;;;;7.32;4.07;;;;;;;10.35;nan;101749.72;5018855;28;20029;-40
2022/05/14 03:27:43;;;;;;;9.68;4.75;;;;;;;10.32;nan;101760.06;5019130;28;20036;-39
2022/05/14 03:30:09;;;;;;;9.68;3.97;;;;;;;10.20;nan;101759.94;5023043;28;20030;-40
2022/05/14 03:32:35;;;;;;;7.30;4.50;;;;;;;10.10;nan;101752.41;5019625;28;20176;-40
2022/05/14 03:35:02;;;;;;;7.05;4.43;;;;;;;10.15;nan;101751.75;5024100;28;20621;-39
2022/05/14 03:37:27;;;;;;;10.07;5.90;;;;;;;10.13;nan;101751.97;5022575;28;20029;-40
2022/05/14 03:39:53;;;;;;;8.45;4.22;;;;;;;10.13;nan;101756.50;5025529;28;20491;-40
2022/05/14 03:42:18;;;;;;;8.48;4.32;;;;;;;10.14;nan;101750.09;5022348;28;20021;-39
2022/05/14 03:44:44;;;;;;;8.90;4.50;;;;;;;10.10;nan;101760.44;5024320;28;20130;-39
2022/05/14 03:47:10;;;;;;;6.10;4.32;;;;;;;10.06;nan;101758.44;5018213;28;20029;-39
2022/05/14 03:49:35;;;;;;;6.82;4.28;;;;;;;10.13;nan;101761.88;5023123;28;20422;-40
2022/05/14 03:52:01;;;;;;;7.30;4.53;;;;;;;10.15;nan;101754.44;5021773;28;20150;-40
2022/05/14 03:54:28;;;;;;;5.15;4.20;;;;;;;10.14;nan;101763.50;5021626;28;20052;-39
2022/05/14 03:56:53;;;;;;;7.65;4.32;;;;;;;10.14;nan;101758.16;5020871;28;20130;-39
2022/05/14 03:59:19;;;;;;;6.57;4.60;;;;;;;10.16;nan;101756.06;5022472;28;20037;-40
2022/05/14 04:01:44;;;;;;;11.40;4.85;;;;;;;10.17;nan;101753.16;5011118;28;20029;-40
2022/05/14 04:04:10;;;;;;;6.65;4.18;;;;;;;10.20;nan;101752.72;5015569;28;20022;-40
2022/05/14 04:06:35;;;;;;;7.80;4.22;;;;;;;10.19;nan;101751.06;5012764;28;20107;-40
2022/05/14 04:09:02;;;;;;;6.07;4.40;;;;;;;10.18;nan;101760.16;5015712;28;20278;-40
2022/05/14 04:11:28;;;;;;;5.90;4.50;;;;;;;10.21;nan;101759.75;5012217;28;20033;-39
2022/05/14 04:13:53;;;;;;;9.32;4.18;;;;;;;10.18;nan;101762.00;5012470;28;20032;-39
2022/05/14 04:16:19;;;;;;;8.52;4.70;;;;;;;10.15;nan;101763.28;5015736;28;20480;-39
2022/05/14 04:18:44;;;;;;;10.50;4.70;;;;;;;10.18;nan;101764.69;5014842;28;20056;-40
2022/05/14 04:21:10;;;;;;;9.35;4.72;;;;;;;10.22;nan;101766.72;5012030;28;20018;-40
2022/05/14 04:23:36;;;;;;;13.95;5.55;;;;;;;10.27;nan;101763.41;5015699;28;20412;-40
2022/05/14 04:26:02;;;;;;;8.82;4.68;;;;;;;10.34;nan;101763.34;5011916;28;20727;-41
2022/05/14 04:28:28;;;;;;;9.38;5.03;;;;;;;10.47;nan;101764.03;5012805;28;20026;-40
2022/05/14 04:30:54;;;;;;;7.35;4.45;;;;;;;10.60;nan;101752.34;5009230;28;20033;-39
2022/05/14 04:33:20;;;;;;;8.50;4.55;;;;;;;10.76;nan;101759.75;5014781;28;20033;-40
2022/05/14 04:35:46;;;;;;;7.78;4.60;;;;;;;10.92;nan;101757.53;5009456;28;20362;-39
2022/05/14 04:38:12;;;;;;;11.77;4.45;;;;;;;11.09;nan;101756.66;5013332;28;20052;-39
2022/05/14 04:40:38;;;;;;;6.45;3.95;;;;;;;11.27;nan;101753.13;5012881;28;20038;-40
2022/05/14 04:43:06;;;;;;;10.35;4.10;;;;;;;11.48;nan;101763.34;5011639;28;20030;-40
2022/05/14 04:45:32;;;;;;;11.85;4.32;;;;;;;11.64;nan;101769.09;5014661;28;20022;-40
2022/05/14 04:47:57;;;;;;;10.43;4.25;;;;;;;11.73;nan;101768.56;5014235;28;20030;-39
2022/05/14 04:50:23;;;;;;;7.45;3.83;;;;;;;11.82;nan;101770.91;5010974;28;20037;-40
2022/05/14 04:52:48;;;;;;;10.13;3.78;;;;;;;11.90;nan;101776.78;5014574;28;20491;-39
2022/05/14 04:55:14;;;;;;;10.35;4.63;;;;;;;11.97;nan;101774.78;5011707;28;20026;-39
2022/05/14 04:57:43;;;;;;;10.82;3.60;;;;;;;12.06;nan;101767.22;5011261;28;20522;-40
2022/05/14 05:00:10;;;;;;;10.45;4.20;;;;;;;12.16;nan;101772.81;5013324;28;20054;-40
2022/05/14 05:05:40;;;;;;;8.77;3.85;;;;;;;12.40;nan;101774.47;4950380;28;20035;-40
2022/05/14 05:08:05;;;;;;;11.30;3.80;;;;;;;12.49;nan;101782.16;4951484;28;20093;-40
2022/05/14 05:10:31;;;;;;;8.90;3.40;;;;;;;12.48;nan;101784.03;4980508;28;20087;-39
2022/05/14 05:12:57;;;;;;;6.38;3.17;;;;;;;12.53;nan;101784.13;5013702;28;20018;-40
2022/05/14 05:15:22;;;;;;;9.60;3.67;;;;;;;12.54;nan;101779.56;5014112;28;20033;-40
2022/05/14 05:17:48;;;;;;;11.73;3.17;;;;;;;12.57;nan;101784.50;5011615;28;20139;-39
2022/05/14 05:20:14;;;;;;;9.90;3.83;;;;;;;12.59;nan;101782.41;5011417;28;20030;-40
2022/05/14 05:22:40;;;;;;;9.70;3.50;;;;;;;12.57;nan;101789.88;5011004;28;20038;-40
2022/05/14 05:25:07;;;;;;;8.38;3.60;;;;;;;12.57;nan;101789.88;5011996;28;20253;-40
2022/05/14 05:27:33;;;;;;;7.43;3.53;;;;;;;12.58;nan;101788.81;5013614;28;20517;-39
2022/05/14 05:29:59;;;;;;;8.13;3.03;;;;;;;12.57;nan;101787.19;5017634;28;20037;-39
2022/05/14 05:32:24;;;;;;;10.88;3.53;;;;;;;12.61;nan;101791.84;5012789;28;20026;-40
2022/05/14 05:34:50;;;;;;;6.80;3.08;;;;;;;12.61;nan;101796.41;5010622;28;20525;-39
2022/05/14 05:37:16;;;;;;;8.88;3.13;;;;;;;12.65;nan;101792.19;5011704;28;20033;-40
2022/05/14 05:39:41;;;;;;;10.20;3.10;;;;;;;12.67;nan;101790.91;5014436;28;20017;-40
2022/05/14 05:42:07;;;;;;;10.18;3.63;;;;;;;12.69;nan;101799.53;5011345;28;20030;-40
2022/05/14 05:44:33;;;;;;;13.23;3.53;;;;;;;12.69;nan;101788.78;5013762;28;20033;-40
2022/05/14 05:46:58;;;;;;;14.23;3.58;;;;;;;12.75;nan;101791.56;5011824;28;20034;-40
2022/05/14 05:49:24;;;;;;;6.75;3.08;;;;;;;12.74;nan;101788.06;5014403;28;20034;-39
2022/05/14 05:51:49;;;;;;;6.80;2.85;;;;;;;12.74;nan;101790.75;5021046;28;20041;-40
2022/05/14 05:57:16;;;;;;;6.75;2.90;;;;;;;12.82;nan;101793.09;4964004;28;20027;-40
2022/05/14 05:59:42;;;;;;;6.45;2.70;;;;;;;12.97;nan;101789.91;5009729;28;20067;-39
2022/05/14 06:02:08;;;;;;;7.53;2.78;;;;;;;13.01;nan;101789.19;5021701;28;20041;-40
2022/05/14 06:04:34;;;;;;;7.18;3.17;;;;;;;13.12;nan;101786.72;5017283;28;20128;-39
2022/05/14 06:07:00;;;;;;;7.55;2.97;;;;;;;13.28;nan;101784.09;5019110;28;20117;-40
2022/05/14 06:09:26;;;;;;;10.32;3.30;;;;;;;13.46;nan;101793.81;5018106;28;20100;-40
2022/05/14 06:11:52;;;;;;;5.25;2.72;;;;;;;13.64;nan;101784.72;5020111;28;20029;-40
2022/05/14 06:14:18;;;;;;;8.32;3.28;;;;;;;13.75;nan;101786.53;5018539;28;20337;-40
2022/05/14 06:16:44;;;;;;;9.75;4.35;;;;;;;13.78;nan;101790.59;5020000;28;20029;-39
2022/05/14 06:19:10;;;;;;;8.13;2.90;;;;;;;13.75;nan;101791.91;5019714;28;20044;-40
2022/05/14 06:21:37;;;;;;;11.13;3.33;;;;;;;13.78;nan;101793.31;5020577;28;20034;-39
2022/05/14 06:24:05;;;;;;;6.18;3.13;;;;;;;13.83;nan;101793.41;5023390;28;20032;-39
2022/05/14 06:26:30;;;;;;;9.00;3.13;;;;;;;14.01;nan;101793.16;5022386;28;20053;-40
2022/05/14 06:28:56;;;;;;;10.00;3.75;;;;;;;14.11;nan;101792.50;5020859;28;20132;-39
2022/05/14 06:31:21;;;;;;;10.40;3.67;;;;;;;14.07;nan;101796.75;5019167;28;20029;-40
2022/05/14 06:33:48;;;;;;;8.65;3.33;;;;;;;13.95;nan;101799.53;5021710;28;20032;-39
2022/05/14 06:36:14;;;;;;;7.40;3.60;;;;;;;13.92;nan;101805.41;5020403;28;20064;-40
2022/05/14 06:38:40;;;;;;;10.25;3.03;;;;;;;13.96;nan;101803.84;5020438;28;20371;-40
2022/05/14 06:41:12;;;;;;;7.78;2.95;;;;;;;13.96;nan;101803.84;5022480;28;20022;-40
2022/05/14 06:43:38;;;;;;;12.98;3.70;;;;;;;13.93;nan;101803.53;5022501;28;20030;-40
2022/05/14 06:46:04;;;;;;;9.10;3.05;;;;;;;13.91;nan;101806.47;5022069;28;20499;-40
2022/05/14 06:48:30;;;;;;;11.98;3.08;;;;;;;13.93;nan;101801.66;5023614;28;20177;-40
2022/05/14 06:51:02;;;;;;;10.90;3.65;;;;;;;13.86;nan;101814.47;5023198;28;20025;-39
2022/05/14 06:53:28;;;;;;;5.20;3.05;;;;;;;13.89;nan;101814.78;5020899;28;20053;-40
2022/05/14 06:55:57;;;;;;;9.30;3.30;;;;;;;13.82;nan;101806.06;5022206;28;20040;-40
2022/05/14 06:58:29;;;;;;;5.82;2.85;;;;;;;13.83;nan;101809.56;5026013;28;20029;-40
2022/05/14 07:00:55;;;;;;;8.13;3.13;;;;;;;13.79;nan;101814.59;5024562;28;20052;-39
2022/05/14 07:08:50;;;;;;;9.75;3.42;;;;;;;13.90;nan;101815.59;5027359;28;20070;-39
2022/05/14 07:11:16;;;;;;;5.47;2.63;;;;;;;13.93;nan;101808.91;5023698;28;20018;-39
2022/05/14 07:13:41;;;;;;;8.13;3.50;;;;;;;13.95;nan;101828.34;5023189;28;20722;-40
2022/05/14 07:16:07;;;;;;;6.50;2.92;;;;;;;14.07;nan;101821.00;5026554;28;20206;-40
2022/05/14 07:18:32;;;;;;;8.88;3.58;;;;;;;14.14;nan;101827.03;5021551;28;20086;-40
2022/05/14 07:20:58;;;;;;;9.35;4.20;;;;;;;14.17;nan;101826.53;5017696;28;20026;-40
2022/05/14 07:23:24;;;;;;;9.60;4.65;;;;;;;14.19;nan;101825.25;5020975;28;20025;-40
2022/05/14 07:25:49;;;;;;;9.35;3.30;;;;;;;14.21;nan;101823.13;5018134;28;20437;-40
2022/05/14 07:28:15;;;;;;;6.45;3.35;;;;;;;14.28;nan;101822.94;5017207;28;20459;-40
2022/05/14 07:30:41;;;;;;;10.20;3.85;;;;;;;14.35;nan;101828.97;5012822;28;20464;-40
2022/05/14 07:33:06;;;;;;;8.40;3.30;;;;;;;14.40;nan;101830.97;5010046;28;20558;-40
2022/05/14 07:35:33;;;;;;;13.35;3.30;;;;;;;14.45;nan;101829.19;5010337;28;20084;-40
2022/05/14 07:38:03;;;;;;;10.20;3.13;;;;;;;14.47;nan;101826.22;5016111;28;20037;-40
2022/05/14 07:40:33;;;;;;;7.90;3.67;;;;;;;14.47;nan;101828.94;5015661;28;20165;-40
2022/05/14 07:43:03;;;;;;;12.85;3.80;;;;;;;14.42;nan;101821.56;5018671;28;20049;-40
2022/05/14 07:45:34;;;;;;;6.70;2.85;;;;;;;14.40;nan;101826.38;5019069;28;20051;-40
2022/05/14 07:48:04;;;;;;;8.20;3.10;;;;;;;14.34;nan;101827.34;5019265;28;20522;-40
2022/05/14 07:50:30;;;;;;;10.63;3.90;;;;;;;14.36;nan;101822.56;5017177;28;20025;-40
2022/05/14 07:52:56;;;;;;;6.30;3.00;;;;;;;14.38;nan;101828.50;5018017;28;20471;-40
2022/05/14 07:55:22;;;;;;;12.30;3.80;;;;;;;14.32;nan;101834.06;5019942;28;20752;-40
2022/05/14 07:57:48;;;;;;;6.30;3.30;;;;;;;14.35;nan;101822.78;5021827;28;20172;-40
2022/05/14 08:00:14;;;;;;;9.90;3.50;;;;;;;14.34;nan;101827.34;5019119;28;20091;-39
2022/05/14 08:02:43;;;;;;;9.57;3.20;;;;;;;14.41;nan;101822.63;5040775;22;20049;-49
2022/05/14 08:05:10;;;;;;;11.73;3.70;;;;;;;14.37;nan;101817.97;5031269;28;20044;-51
2022/05/14 08:07:37;;;;;;;10.65;3.30;;;;;;;14.43;nan;101808.88;5037594;28;20078;-49
2022/05/14 08:10:04;;;;;;;11.13;3.53;;;;;;;14.48;nan;101808.97;5042168;28;20032;-47
2022/05/14 08:12:38;;;;;;;9.65;3.33;;;;;;;14.53;nan;101814.44;5042715;28;20035;-47
2022/05/14 08:15:04;;;;;;;14.10;3.20;;;;;;;14.60;nan;101815.09;5041812;28;20025;-47
2022/05/14 08:17:30;;;;;;;15.40;2.95;;;;;;;14.69;nan;101813.59;5041218;28;20064;-46
2022/05/14 08:19:55;;;;;;;8.07;3.47;;;;;;;14.80;nan;101804.56;5040343;28;20113;-46
2022/05/14 08:25:07;;;;;;;7.80;3.30;;;;;;;14.95;nan;101808.53;5040774;28;20044;-46
2022/05/14 08:27:44;;;;;;;8.07;3.47;;;;;;;15.04;nan;101812.41;5038210;28;20029;-46
2022/05/14 08:30:12;;;;;;;10.45;2.95;;;;;;;15.15;nan;101808.78;5042230;28;20021;-46
2022/05/14 08:32:37;;;;;;;9.40;3.13;;;;;;;15.14;nan;101803.63;5035771;28;20048;-46
2022/05/14 08:35:03;;;;;;;10.88;2.92;;;;;;;15.08;nan;101800.03;5037192;28;20244;-47
2022/05/14 08:37:29;;;;;;;8.05;3.33;;;;;;;15.13;nan;101810.91;5039907;28;20474;-47
2022/05/14 08:39:54;;;;;;;9.50;2.55;;;;;;;15.20;nan;101802.59;5041099;28;20029;-46
2022/05/14 08:42:20;;;;;;;8.48;3.05;;;;;;;15.23;nan;101808.31;5036932;28;20697;-46
2022/05/14 08:44:46;;;;;;;8.85;3.13;;;;;;;15.32;nan;101812.22;5032892;28;20029;-48
2022/05/14 08:47:28;;;;;;;11.40;3.40;;;;;;;15.30;nan;101813.53;5037350;28;20021;-45
2022/05/14 08:49:55;;;;;;;8.52;3.22;;;;;;;15.35;nan;101806.28;5035601;28;20073;-46
2022/05/14 08:52:27;;;;;;;10.07;3.63;;;;;;;15.39;nan;101807.41;5040283;28;20029;-45
2022/05/14 08:55:04;;;;;;;6.95;2.72;;;;;;;15.39;nan;101803.91;5037879;28;20554;-46
2022/05/14 08:57:56;;;;;;;12.70;3.42;;;;;;;15.46;nan;101807.22;5034977;28;20072;-46
2022/05/14 09:00:22;;;;;;;8.48;3.10;;;;;;;15.55;nan;101816.47;5038604;28;20029;-45
2022/05/14 09:02:54;;;;;;;8.77;3.15;;;;;;;15.61;nan;101815.47;5038194;28;20028;-46
2022/05/14 09:05:30;;;;;;;10.07;2.75;;;;;;;15.65;nan;101815.81;5039307;28;20021;-46
2022/05/14 09:07:55;;;;;;;8.50;2.67;;;;;;;15.68;nan;101821.50;5038365;28;20060;-46
2022/05/14 09:10:33;;;;;;;12.95;2.80;;;;;;;15.70;nan;101821.25;5040932;28;20110;-47
2022/05/14 09:13:08;;;;;;;12.20;3.13;;;;;;;15.63;nan;101826.06;5034864;28;20056;-45
2022/05/14 09:15:34;;;;;;;;;;;;;;;15.61;nan;101823.59;5040522;28;20508;-45
2022/05/14 09:18:30;;;;;;;8.65;3.08;;;;;;;15.70;nan;101823.97;5041131;28;19928;-46
2022/05/14 09:21:02;;;;;;;8.27;2.60;;;;;;;15.71;nan;101831.81;5031637;28;20504;-45
2022/05/14 09:23:52;;;;;;;8.68;2.90;;;;;;;15.72;nan;101819.13;5039706;28;20044;-46
2022/05/14 09:26:34;;;;;;;8.43;2.78;;;;;;;15.78;nan;101818.06;5035047;28;20451;-45
2022/05/14 09:29:24;;;;;;;13.32;2.90;;;;;;;15.83;nan;101828.94;5035642;28;20083;-47
2022/05/14 09:32:01;;;;;;;13.02;2.95;;;;;;;15.79;nan;101830.50;5032128;28;20051;-45
2022/05/14 09:34:29;;;;;;;11.98;2.92;;;;;;;15.80;nan;101831.31;5031374;28;20474;-46
2022/05/14 09:37:10;;;;;;;10.23;3.38;;;;;;;15.80;nan;101828.63;5031026;28;20518;-44
2022/05/14 09:39:36;;;;;;;11.52;2.90;;;;;;;15.80;nan;101831.31;5037022;28;20024;-45
2022/05/14 09:42:04;;;;;;;13.32;3.15;;;;;;;15.87;nan;101837.34;5035606;28;20571;-47
2022/05/14 09:44:51;;;;;;;13.43;3.20;;;;;;;15.89;nan;101836.03;5035551;28;20036;-45
2022/05/14 09:47:30;;;;;;;10.82;2.92;;;;;;;15.95;nan;101842.28;5033141;28;20510;-45
2022/05/14 09:50:03;;;;;;;12.85;2.85;;;;;;;15.94;nan;101852.28;5032979;28;20033;-45
2022/05/14 09:52:32;;;;;;;12.00;3.17;;;;;;;16.06;nan;101845.91;5030417;28;20139;-46
2022/05/14 09:55:03;;;;;;;15.20;3.25;;;;;;;16.07;nan;101848.34;5031974;28;20095;-48
2022/05/14 09:57:38;;;;;;;7.90;2.80;;;;;;;16.13;nan;101841.06;5036590;28;20087;-46
2022/05/14 10:00:09;;;;;;;;;;;;;;;16.10;nan;101839.69;5035242;28;20044;-48
2022/05/14 10:02:41;;;;;;;10.68;3.92;;;;;;;16.24;nan;101842.78;5034129;28;20346;-46
2022/05/14 10:05:34;;;;;;;11.25;2.80;;;;;;;16.36;nan;101845.31;5031005;28;20370;-46
2022/05/14 10:08:15;;;;;;;8.70;2.67;;;;;;;16.48;nan;101841.31;5030805;28;20039;-46
2022/05/14 10:11:02;;;;;;;12.55;3.40;;;;;;;16.65;nan;101841.16;5033473;28;20021;-46
2022/05/14 10:14:01;;;;;;;8.07;2.88;;;;;;;16.73;nan;101837.19;5036383;28;20028;-46
2022/05/14 10:16:54;;;;;;;13.13;3.33;;;;;;;16.82;nan;101849.94;5032282;28;20025;-45
2022/05/14 10:19:48;;;;;;;12.75;3.72;;;;;;;16.89;nan;101844.31;5039025;28;20028;-47
2022/05/14 10:26:44;;;;;;;10.80;3.17;;;;;;;16.90;nan;101852.19;5036934;28;20163;-46
2022/05/14 10:28:14;;;;;;;7.82;3.60;;;;;;;16.92;nan;101841.91;5035787;28;20462;-45
2022/05/14 10:30:51;;;;;;;10.43;3.47;;;;;;;16.99;nan;101838.94;5044369;28;20044;-46
2022/05/14 10:33:22;;;;;;;10.57;3.25;;;;;;;16.99;nan;101841.63;5043010;28;20040;-46
2022/05/14 10:35:59;;;;;;;10.18;2.85;;;;;;;17.03;nan;101831.09;5045557;28;20028;-45
2022/05/14 10:38:31;;;;;;;10.85;3.10;;;;;;;17.18;nan;101834.66;5041156;28;20036;-46
2022/05/14 10:41:04;;;;;;;10.90;3.25;;;;;;;17.29;nan;101832.00;5046353;28;20033;-44
2022/05/14 10:43:33;;;;;;;7.38;3.00;;;;;;;17.48;nan;101839.38;5042425;28;20033;-45
2022/05/14 10:46:04;;;;;;;11.38;3.47;;;;;;;17.68;nan;101827.78;5039586;28;20029;-46
2022/05/14 10:48:34;;;;;;;10.32;3.30;;;;;;;17.76;nan;101829.94;5035966;28;20184;-47
2022/05/14 10:51:06;;;;;;;10.00;2.90;;;;;;;17.79;nan;101832.13;5040771;28;20083;-47
2022/05/14 10:53:33;;;;;;;8.38;2.80;;;;;;;17.66;nan;101834.53;5037156;28;20511;-45
2022/05/14 10:56:04;;;;;;;10.10;2.80;;;;;;;17.72;nan;101828.06;5037286;28;20029;-47
2022/05/14 10:59:02;;;;;;;7.75;2.38;;;;;;;17.67;nan;101831.53;5037734;28;20036;-46
2022/05/14 11:01:41;;;;;;;10.60;2.97;;;;;;;17.67;nan;101828.84;5041192;28;20099;-46
2022/05/14 11:04:24;;;;;;;10.27;3.10;;;;;;;17.63;nan;101833.16;5036191;28;20560;-46
2022/05/14 11:07:01;;;;;;;8.55;2.75;;;;;;;17.71;nan;101835.38;5035135;28;20040;-46
2022/05/14 11:09:45;;;;;;;7.70;2.80;;;;;;;17.68;nan;101821.56;5041007;28;20017;-45
2022/05/14 11:12:19;;;;;;;6.68;2.90;;;;;;;17.71;nan;101832.66;5037446;28;20020;-46
2022/05/14 11:14:48;;;;;;;10.15;2.83;;;;;;;17.71;nan;101839.97;5037826;28;20055;-48
2022/05/14 11:17:33;;;;;;;8.02;2.72;;;;;;;17.67;nan;101841.56;5037819;28;20033;-45
2022/05/14 11:20:15;;;;;;;13.90;3.25;;;;;;;17.64;nan;101842.13;5036463;28;20061;-47
2022/05/14 11:22:50;;;;;;;11.82;3.10;;;;;;;17.63;nan;101841.31;5037425;28;20098;-45
2022/05/14 11:25:27;;;;;;;8.13;3.08;;;;;;;17.71;nan;101851.63;5034010;28;20025;-45
2022/05/14 11:28:11;;;;;;;12.90;2.90;;;;;;;17.71;nan;101846.22;5033444;28;20118;-45
2022/05/14 11:30:51;;;;;;;6.68;2.80;;;;;;;17.63;nan;101854.84;5032465;28;20025;-46
2022/05/14 11:33:25;;;;;;;9.68;3.05;;;;;;;17.74;nan;101845.66;5033782;28;20203;-46
2022/05/14 11:35:53;;;;;;;9.02;3.40;;;;;;;17.74;nan;101844.84;5031275;28;20116;-46
2022/05/14 11:38:24;;;;;;;8.00;2.70;;;;;;;17.70;nan;101850.00;5033390;28;20031;-46
2022/05/14 11:41:01;;;;;;;9.82;2.67;;;;;;;17.80;nan;101852.75;5036485;28;20226;-46
2022/05/14 11:43:34;;;;;;;14.52;4.07;;;;;;;17.94;nan;101850.28;5034019;28;20637;-47
2022/05/14 11:46:09;;;;;;;9.52;2.83;;;;;;;18.05;nan;101845.69;5039350;28;20049;-46
2022/05/14 11:49:00;;;;;;;10.70;2.63;;;;;;;18.24;nan;101849.47;5038991;28;20554;-45
2022/05/14 11:51:36;;;;;;;7.05;2.25;;;;;;;18.39;nan;101844.03;5033545;28;20041;-46
2022/05/14 11:54:05;;;;;;;9.32;3.10;;;;;;;18.41;nan;101847.28;5035387;28;20145;-46
2022/05/14 11:56:40;;;;;;;9.45;2.85;;;;;;;18.52;nan;101847.28;5037034;28;20044;-47
2022/05/14 11:59:15;;;;;;;10.70;2.60;;;;;;;18.53;nan;101849.72;5037101;28;20448;-48
2022/05/14 12:01:44;;;;;;;8.32;2.92;;;;;;;18.66;nan;101854.59;5033337;28;20113;-46
2022/05/14 12:04:22;;;;;;;10.80;2.95;;;;;;;18.97;nan;101840.94;5032690;28;20052;-46
2022/05/14 12:06:56;;;;;;;10.52;2.42;;;;;;;19.15;nan;101847.66;5039223;28;20037;-47
2022/05/14 12:09:40;;;;;;;7.20;2.65;;;;;;;19.07;nan;101837.38;5040416;28;20394;-46